createdAt,value
2022-12-25T00:00:02.171Z,10.30
2022-12-25T00:02:31.676Z,10.30
2022-12-25T00:04:58.924Z,10.30
2022-12-25T00:07:25.928Z,10.20
2022-12-25T00:09:52.954Z,10.30
2022-12-25T00:12:21.088Z,10.20
2022-12-25T00:14:48.517Z,10.30
2022-12-25T00:17:15.720Z,10.30
2022-12-25T00:19:42.689Z,10.20
2022-12-25T00:22:09.678Z,10.20
2022-12-25T00:24:36.637Z,10.20
2022-12-25T00:27:03.762Z,10.20
2022-12-25T00:29:30.746Z,10.20
2022-12-25T00:31:57.782Z,10.20
2022-12-25T00:34:24.821Z,10.20
2022-12-25T00:36:52.169Z,10.20
2022-12-25T00:39:19.649Z,10.20
2022-12-25T00:42:05.829Z,10.20
2022-12-25T00:44:32.922Z,10.20
2022-12-25T00:46:59.991Z,10.20
2022-12-25T00:49:27.228Z,10.20
2022-12-25T00:51:54.491Z,10.20
2022-12-25T00:54:21.856Z,10.20
2022-12-25T00:56:49.135Z,10.20
2022-12-25T00:59:16.167Z,10.20
2022-12-25T01:01:43.243Z,10.10
2022-12-25T01:04:11.641Z,10.20
2022-12-25T01:06:39.444Z,10.10
2022-12-25T01:09:25.131Z,10.10
2022-12-25T01:11:52.258Z,10.20
2022-12-25T01:14:19.468Z,10.10
2022-12-25T01:16:46.669Z,10.20
2022-12-25T01:19:13.665Z,10.10
2022-12-25T01:21:40.697Z,10.20
2022-12-25T01:24:08.055Z,10.20
2022-12-25T01:26:35.103Z,10.20
2022-12-25T01:29:02.707Z,10.20
2022-12-25T01:31:29.922Z,10.20
2022-12-25T01:33:56.909Z,10.20
2022-12-25T01:36:26.071Z,10.20
2022-12-25T01:38:54.390Z,10.20
2022-12-25T01:41:24.242Z,10.20
2022-12-25T01:44:26.043Z,10.20
2022-12-25T01:46:53.073Z,10.20
2022-12-25T01:49:25.778Z,10.20
2022-12-25T01:51:52.720Z,10.20
2022-12-25T01:54:33.391Z,10.20
2022-12-25T01:57:05.613Z,10.20
2022-12-25T01:59:33.097Z,10.20
2022-12-25T02:02:00.764Z,10.20
2022-12-25T02:04:40.993Z,10.20
2022-12-25T02:07:10.192Z,10.20
2022-12-25T02:09:38.292Z,10.20
2022-12-25T02:12:06.472Z,10.20
2022-12-25T02:14:36.650Z,10.20
2022-12-25T02:17:21.513Z,10.20
2022-12-25T02:20:27.841Z,10.20
2022-12-25T02:23:16.721Z,10.20
2022-12-25T02:25:58.860Z,10.20
2022-12-25T02:28:47.770Z,10.20
2022-12-25T02:31:34.290Z,10.20
2022-12-25T02:34:21.636Z,10.20
2022-12-25T02:37:06.789Z,10.20
2022-12-25T02:39:58.730Z,10.20
2022-12-25T02:42:56.244Z,10.20
2022-12-25T02:45:57.427Z,10.10
2022-12-25T02:48:47.749Z,10.10
2022-12-25T02:51:37.020Z,10.10
2022-12-25T02:54:27.966Z,10.10
2022-12-25T02:57:15.727Z,10.10
2022-12-25T03:00:05.583Z,10.00
2022-12-25T03:02:52.371Z,10.10
2022-12-25T03:05:41.771Z,10.00
2022-12-25T03:08:13.876Z,10.00
2022-12-25T03:11:04.682Z,10.00
2022-12-25T03:13:38.256Z,10.00
2022-12-25T03:16:25.279Z,10.00
2022-12-25T03:18:55.987Z,10.00
2022-12-25T03:21:41.433Z,10.00
2022-12-25T03:24:26.754Z,10.00
2022-12-25T03:26:56.953Z,10.00
2022-12-25T03:29:51.680Z,10.00
2022-12-25T03:32:37.343Z,10.00
2022-12-25T03:35:30.861Z,10.00
2022-12-25T03:38:19.446Z,10.00
2022-12-25T03:41:10.826Z,10.00
2022-12-25T03:44:04.723Z,9.90
2022-12-25T03:46:54.673Z,9.90
2022-12-25T03:49:50.726Z,9.90
2022-12-25T03:52:38.546Z,9.90
2022-12-25T03:55:29.057Z,9.90
2022-12-25T03:58:14.921Z,9.90
2022-12-25T04:01:00.932Z,9.90
2022-12-25T04:03:46.842Z,9.90
2022-12-25T04:06:32.418Z,9.90
2022-12-25T04:09:18.125Z,9.90
2022-12-25T04:12:04.069Z,9.90
2022-12-25T04:14:49.715Z,9.90
2022-12-25T04:17:35.306Z,9.90
2022-12-25T04:20:21.072Z,9.90
2022-12-25T04:23:06.547Z,9.90
2022-12-25T04:25:52.328Z,9.90
2022-12-25T04:28:37.984Z,9.90
2022-12-25T04:31:23.452Z,9.90
2022-12-25T04:34:09.153Z,9.90
2022-12-25T04:36:36.201Z,9.90
2022-12-25T04:39:03.451Z,9.90
2022-12-25T04:41:30.489Z,10.00
2022-12-25T04:43:57.482Z,10.00
2022-12-25T04:46:24.621Z,10.00
2022-12-25T04:48:51.593Z,10.00
2022-12-25T04:51:23.850Z,10.00
2022-12-25T04:53:52.441Z,10.00
2022-12-25T04:56:20.575Z,10.00
2022-12-25T04:58:49.209Z,10.00
2022-12-25T05:01:17.397Z,10.00
2022-12-25T05:03:44.686Z,10.10
2022-12-25T05:06:11.801Z,10.10
2022-12-25T05:08:39.170Z,10.10
2022-12-25T05:11:11.667Z,10.10
2022-12-25T05:13:39.335Z,10.10
2022-12-25T05:16:15.215Z,10.10
2022-12-25T05:18:42.500Z,10.10
2022-12-25T05:21:11.588Z,10.10
2022-12-25T05:23:38.818Z,10.10
2022-12-25T05:26:07.290Z,10.10
2022-12-25T05:28:35.799Z,10.10
2022-12-25T05:31:03.561Z,10.10
2022-12-25T05:33:30.732Z,10.10
2022-12-25T05:35:57.689Z,10.10
2022-12-25T05:38:24.767Z,10.10
2022-12-25T05:40:52.094Z,10.10
2022-12-25T05:43:19.683Z,10.10
2022-12-25T05:45:46.748Z,10.10
2022-12-25T05:48:13.817Z,10.10
2022-12-25T05:50:40.806Z,10.10
2022-12-25T05:53:13.096Z,10.10
2022-12-25T05:55:43.662Z,10.10
2022-12-25T05:58:12.713Z,10.10
2022-12-25T06:00:41.051Z,10.10
2022-12-25T06:03:08.192Z,10.10
2022-12-25T06:05:38.870Z,10.10
2022-12-25T06:08:05.965Z,10.10
2022-12-25T06:10:33.060Z,10.10
2022-12-25T06:13:00.880Z,10.10
2022-12-25T06:15:27.922Z,10.10
2022-12-25T06:17:55.112Z,10.10
2022-12-25T06:20:22.192Z,10.10
2022-12-25T06:22:49.270Z,10.10
2022-12-25T06:25:16.928Z,10.10
2022-12-25T06:27:44.281Z,10.10
2022-12-25T06:30:11.456Z,10.10
2022-12-25T06:32:38.740Z,10.10
2022-12-25T06:35:06.271Z,10.10
2022-12-25T06:37:33.353Z,10.10
2022-12-25T06:40:00.537Z,10.10
2022-12-25T06:42:27.659Z,10.10
2022-12-25T06:44:54.615Z,10.10
2022-12-25T06:47:21.762Z,10.10
2022-12-25T06:49:48.873Z,10.10
2022-12-25T06:52:15.944Z,10.10
2022-12-25T06:54:42.964Z,10.10
2022-12-25T06:57:10.783Z,10.10
2022-12-25T06:59:37.857Z,10.10
2022-12-25T07:02:05.127Z,10.10
2022-12-25T07:04:38.055Z,10.10
2022-12-25T07:07:09.240Z,10.20
2022-12-25T07:09:39.286Z,10.10
2022-12-25T07:12:08.241Z,10.20
2022-12-25T07:14:35.222Z,10.10
2022-12-25T07:17:02.271Z,10.20
2022-12-25T07:19:29.240Z,10.20
2022-12-25T07:21:56.530Z,10.20
2022-12-25T07:24:24.118Z,10.20
2022-12-25T07:26:51.831Z,10.20
2022-12-25T07:29:19.824Z,10.20
2022-12-25T07:31:47.897Z,10.20
2022-12-25T07:34:16.478Z,10.20
2022-12-25T07:36:43.447Z,10.20
2022-12-25T07:39:11.414Z,10.20
2022-12-25T07:41:38.528Z,10.20
2022-12-25T07:44:15.529Z,10.20
2022-12-25T07:46:42.682Z,10.20
2022-12-25T07:49:11.321Z,10.20
2022-12-25T07:51:38.694Z,10.20
2022-12-25T07:54:06.822Z,10.20
2022-12-25T07:56:34.014Z,10.20
2022-12-25T07:59:01.037Z,10.20
2022-12-25T08:01:28.488Z,10.20
2022-12-25T08:04:01.129Z,10.20
2022-12-25T08:06:32.758Z,10.20
2022-12-25T08:09:08.330Z,10.20
2022-12-25T08:11:35.484Z,10.20
2022-12-25T08:14:05.033Z,10.20
2022-12-25T08:16:32.130Z,10.20
2022-12-25T08:18:59.725Z,10.20
2022-12-25T08:21:27.074Z,10.20
2022-12-25T08:23:54.120Z,10.20
2022-12-25T08:26:23.234Z,10.20
2022-12-25T08:28:50.710Z,10.30
2022-12-25T08:31:24.126Z,10.20
2022-12-25T08:33:54.986Z,10.20
2022-12-25T08:36:22.703Z,10.20
2022-12-25T08:38:50.362Z,10.20
2022-12-25T08:41:18.267Z,10.20
2022-12-25T08:43:45.786Z,10.20
2022-12-25T08:46:13.063Z,10.20
2022-12-25T08:48:43.237Z,10.30
2022-12-25T08:51:16.167Z,10.20
2022-12-25T08:53:44.462Z,10.20
2022-12-25T08:56:11.929Z,10.20
2022-12-25T08:58:39.061Z,10.20
2022-12-25T09:01:06.989Z,10.20
2022-12-25T09:03:34.887Z,10.30
2022-12-25T09:06:07.400Z,10.20
2022-12-25T09:08:35.650Z,10.30
2022-12-25T09:11:08.355Z,10.30
2022-12-25T09:13:35.587Z,10.30
2022-12-25T09:16:11.934Z,10.30
2022-12-25T09:18:39.393Z,10.30
2022-12-25T09:21:09.652Z,10.30
2022-12-25T09:23:36.687Z,10.30
2022-12-25T09:26:06.043Z,10.30
2022-12-25T09:28:33.499Z,10.30
2022-12-25T09:31:00.674Z,10.30
2022-12-25T09:33:28.240Z,10.40
2022-12-25T09:35:56.426Z,10.30
2022-12-25T09:38:23.618Z,10.40
2022-12-25T09:41:05.648Z,10.30
2022-12-25T09:43:39.771Z,10.40
2022-12-25T09:46:13.628Z,10.30
2022-12-25T09:48:46.007Z,10.30
2022-12-25T09:51:18.549Z,10.30
2022-12-25T09:54:04.647Z,10.40
2022-12-25T09:56:33.501Z,10.40
2022-12-25T09:59:00.484Z,10.40
2022-12-25T10:01:33.761Z,10.40
2022-12-25T10:04:37.491Z,10.40
2022-12-25T10:07:30.918Z,10.40
2022-12-25T10:10:23.949Z,10.40
2022-12-25T10:13:05.884Z,10.40
2022-12-25T10:16:08.460Z,10.40
2022-12-25T10:18:35.561Z,10.40
2022-12-25T10:21:11.055Z,10.40
2022-12-25T10:24:18.701Z,10.40
2022-12-25T10:26:45.814Z,10.50
2022-12-25T10:29:16.136Z,10.40
2022-12-25T10:31:46.919Z,10.40
2022-12-25T10:34:15.753Z,10.50
2022-12-25T10:36:45.811Z,10.50
2022-12-25T10:39:21.573Z,10.50
2022-12-25T10:41:57.033Z,10.50
2022-12-25T10:44:26.900Z,10.50
2022-12-25T10:46:59.045Z,10.50
2022-12-25T10:49:34.279Z,10.50
2022-12-25T10:52:02.688Z,10.50
2022-12-25T10:54:35.790Z,10.50
2022-12-25T10:57:10.274Z,10.50
2022-12-25T10:59:45.532Z,10.50
2022-12-25T11:02:49.383Z,10.50
2022-12-25T11:05:34.339Z,10.50
2022-12-25T11:08:03.380Z,10.50
2022-12-25T11:10:44.146Z,10.50
2022-12-25T11:13:21.839Z,10.50
2022-12-25T11:15:50.243Z,10.50
2022-12-25T11:18:19.733Z,10.50
2022-12-25T11:20:51.934Z,10.50
2022-12-25T11:23:21.699Z,10.50
2022-12-25T11:25:57.125Z,10.50
2022-12-25T11:28:26.223Z,10.60
2022-12-25T11:31:00.761Z,10.60
2022-12-25T11:33:40.334Z,10.50
2022-12-25T11:36:17.507Z,10.50
2022-12-25T11:38:44.778Z,10.60
2022-12-25T11:41:15.377Z,10.50
2022-12-25T11:43:59.523Z,10.60
2022-12-25T11:46:37.904Z,10.50
2022-12-25T11:49:16.414Z,10.50
2022-12-25T11:51:47.376Z,10.50
2022-12-25T11:54:38.869Z,10.50
2022-12-25T11:57:11.468Z,10.50
2022-12-25T11:59:49.977Z,10.50
2022-12-25T12:02:27.094Z,10.60
2022-12-25T12:05:11.919Z,10.60
2022-12-25T12:07:58.738Z,10.60
2022-12-25T12:10:51.967Z,10.60
2022-12-25T12:13:36.172Z,10.60
2022-12-25T12:16:06.020Z,10.60
2022-12-25T12:18:34.123Z,10.60
2022-12-25T12:21:06.104Z,10.60
2022-12-25T12:23:56.331Z,10.60
2022-12-25T12:26:26.105Z,10.60
2022-12-25T12:28:56.153Z,10.60
2022-12-25T12:31:23.852Z,10.60
2022-12-25T12:33:53.425Z,10.70
2022-12-25T12:36:29.231Z,10.60
2022-12-25T12:39:02.549Z,10.60
2022-12-25T12:41:47.522Z,10.70
2022-12-25T12:44:17.351Z,10.60
2022-12-25T12:46:56.695Z,10.60
2022-12-25T12:49:27.056Z,10.70
2022-12-25T12:52:23.131Z,10.60
2022-12-25T12:55:13.268Z,10.70
2022-12-25T12:57:41.241Z,10.70
2022-12-25T13:00:19.970Z,10.60
2022-12-25T13:03:04.981Z,10.60
2022-12-25T13:05:37.960Z,10.70
2022-12-25T13:08:04.946Z,10.70
2022-12-25T13:10:37.473Z,10.70
2022-12-25T13:13:17.783Z,10.70
2022-12-25T13:15:48.002Z,10.70
2022-12-25T13:18:15.354Z,10.70
2022-12-25T13:21:04.896Z,10.70
2022-12-25T13:23:36.828Z,10.70
2022-12-25T13:26:14.895Z,10.80
2022-12-25T13:28:41.915Z,10.80
2022-12-25T13:31:22.146Z,10.80
2022-12-25T13:34:02.584Z,10.80
2022-12-25T13:36:34.988Z,10.80
2022-12-25T13:39:02.390Z,10.80
2022-12-25T13:42:04.495Z,10.80
2022-12-25T13:44:51.950Z,10.90
2022-12-25T13:47:27.640Z,10.90
2022-12-25T13:49:56.246Z,10.90
2022-12-25T13:52:37.443Z,10.90
2022-12-25T13:55:19.436Z,10.90
2022-12-25T13:57:55.469Z,10.90
2022-12-25T14:00:32.649Z,10.90
2022-12-25T14:03:00.460Z,10.90
2022-12-25T14:05:42.758Z,10.90
2022-12-25T14:08:22.894Z,10.90
2022-12-25T14:10:51.940Z,10.90
2022-12-25T14:13:22.422Z,10.90
2022-12-25T14:15:51.395Z,10.90
2022-12-25T14:18:21.077Z,10.90
2022-12-25T14:21:01.179Z,10.90
2022-12-25T14:23:41.346Z,10.90
2022-12-25T14:26:19.826Z,10.90
2022-12-25T14:29:10.170Z,10.90
2022-12-25T14:31:42.991Z,10.90
2022-12-25T14:34:22.715Z,10.90
2022-12-25T14:36:52.159Z,10.90
2022-12-25T14:39:33.442Z,10.90
2022-12-25T14:42:02.477Z,10.90
2022-12-25T14:44:36.867Z,10.90
2022-12-25T14:47:22.151Z,10.90
2022-12-25T14:49:49.662Z,11.00
2022-12-25T14:52:24.872Z,10.90
2022-12-25T14:55:01.586Z,11.00
2022-12-25T14:57:40.563Z,11.00
2022-12-25T15:00:23.221Z,11.00
2022-12-25T15:02:53.323Z,11.00
2022-12-25T15:05:39.580Z,11.00
2022-12-25T15:08:12.546Z,10.90
2022-12-25T15:13:28.902Z,11.00
2022-12-25T15:16:14.185Z,11.00
2022-12-25T15:18:44.320Z,11.00
2022-12-25T15:21:33.092Z,11.00
2022-12-25T15:24:00.765Z,11.00
2022-12-25T15:26:29.777Z,11.00
2022-12-25T15:28:57.272Z,11.00
2022-12-25T15:31:30.440Z,11.00
2022-12-25T15:34:00.804Z,11.00
2022-12-25T15:36:28.277Z,11.00
2022-12-25T15:38:55.902Z,10.90
2022-12-25T15:41:51.250Z,11.00
2022-12-25T15:44:18.334Z,10.90
2022-12-25T15:46:46.219Z,10.90
2022-12-25T15:49:14.752Z,10.90
2022-12-25T15:51:42.939Z,11.00
2022-12-25T15:54:10.789Z,11.00
2022-12-25T15:56:46.218Z,11.00
2022-12-25T15:59:14.675Z,10.90
2022-12-25T16:01:49.057Z,10.90
2022-12-25T16:04:16.186Z,10.90
2022-12-25T16:06:43.339Z,10.90
2022-12-25T16:09:12.836Z,10.90
2022-12-25T16:11:40.018Z,10.90
2022-12-25T16:14:07.239Z,10.90
2022-12-25T16:16:34.345Z,10.90
2022-12-25T16:19:01.568Z,10.90
2022-12-25T16:21:50.408Z,10.90
2022-12-25T16:24:17.594Z,10.90
2022-12-25T16:26:44.588Z,10.90
2022-12-25T16:29:11.765Z,10.90
2022-12-25T16:31:39.996Z,10.90
2022-12-25T16:34:07.980Z,10.90
2022-12-25T16:36:35.887Z,10.90
2022-12-25T16:39:04.362Z,10.90
2022-12-25T16:41:31.445Z,10.80
2022-12-25T16:43:58.527Z,10.80
2022-12-25T16:46:25.604Z,10.80
2022-12-25T16:48:52.651Z,10.70
2022-12-25T16:51:21.770Z,10.80
2022-12-25T16:53:48.721Z,10.80
2022-12-25T16:56:18.441Z,10.80
2022-12-25T16:58:47.017Z,10.70
2022-12-25T17:01:20.245Z,10.70
2022-12-25T17:03:48.092Z,10.70
2022-12-25T17:06:25.702Z,10.70
2022-12-25T17:08:56.182Z,10.70
2022-12-25T17:11:29.762Z,10.70
2022-12-25T17:13:59.901Z,10.70
2022-12-25T17:16:29.859Z,10.60
2022-12-25T17:19:01.555Z,10.70
2022-12-25T17:21:29.827Z,10.60
2022-12-25T17:24:02.331Z,10.60
2022-12-25T17:26:31.712Z,10.60
2022-12-25T17:28:58.919Z,10.60
2022-12-25T17:31:26.058Z,10.60
2022-12-25T17:33:53.252Z,10.60
2022-12-25T17:36:21.800Z,10.60
2022-12-25T17:38:48.938Z,10.60
2022-12-25T17:41:17.999Z,10.60
2022-12-25T17:43:45.892Z,10.60
2022-12-25T17:46:17.455Z,10.60
2022-12-25T17:48:45.812Z,10.60
2022-12-25T17:51:18.724Z,10.60
2022-12-25T17:53:48.563Z,10.60
2022-12-25T17:56:16.802Z,10.60
2022-12-25T17:58:44.104Z,10.60
2022-12-25T18:01:14.702Z,10.60
2022-12-25T18:03:42.612Z,10.60
2022-12-25T18:06:14.907Z,10.60
2022-12-25T18:08:43.183Z,10.60
2022-12-25T18:11:15.306Z,10.60
2022-12-25T18:13:45.112Z,10.70
2022-12-25T18:16:13.159Z,10.70
2022-12-25T18:18:40.568Z,10.70
2022-12-25T18:21:08.452Z,10.70
2022-12-25T18:23:36.320Z,10.70
2022-12-25T18:26:05.763Z,10.70
2022-12-25T18:28:33.755Z,10.80
2022-12-25T18:31:01.235Z,10.80
2022-12-25T18:33:28.483Z,10.80
2022-12-25T18:35:59.951Z,10.80
2022-12-25T18:38:27.913Z,10.80
2022-12-25T18:40:56.033Z,10.90
2022-12-25T18:43:53.337Z,10.90
2022-12-25T18:46:10.233Z,10.90
2022-12-25T18:48:37.969Z,10.90
2022-12-25T18:51:11.173Z,10.90
2022-12-25T18:53:38.543Z,10.90
2022-12-25T18:56:11.797Z,10.90
2022-12-25T18:58:40.403Z,10.90
2022-12-25T19:01:22.140Z,10.90
2022-12-25T19:03:50.499Z,10.90
2022-12-25T19:06:23.603Z,10.90
2022-12-25T19:08:50.794Z,10.90
2022-12-25T19:11:18.381Z,10.90
2022-12-25T19:13:45.569Z,10.90
2022-12-25T19:16:13.191Z,10.90
2022-12-25T19:18:40.804Z,10.90
2022-12-25T19:21:09.857Z,11.00
2022-12-25T19:23:38.202Z,10.90
2022-12-25T19:26:06.863Z,10.90
2022-12-25T19:28:34.587Z,11.00
2022-12-25T19:31:07.437Z,10.90
2022-12-25T19:33:37.160Z,11.00
2022-12-25T19:36:10.676Z,11.00
2022-12-25T19:38:38.465Z,11.00
2022-12-25T19:41:07.616Z,11.00
2022-12-25T19:43:38.269Z,11.10
2022-12-25T19:46:06.686Z,11.00
2022-12-25T19:48:34.803Z,11.10
2022-12-25T19:51:01.911Z,11.10
2022-12-25T19:53:30.046Z,11.10
2022-12-25T19:56:01.797Z,11.10
2022-12-25T19:58:30.188Z,11.10
2022-12-25T20:01:02.959Z,11.10
2022-12-25T20:03:30.260Z,11.10
2022-12-25T20:05:57.350Z,11.20
2022-12-25T20:08:24.877Z,11.20
2022-12-25T20:10:52.342Z,11.20
2022-12-25T20:13:20.283Z,11.20
2022-12-25T20:15:48.328Z,11.20
2022-12-25T20:18:16.876Z,11.20
2022-12-25T20:20:45.080Z,11.20
2022-12-25T20:23:12.248Z,11.20
2022-12-25T20:25:41.249Z,11.20
2022-12-25T20:28:09.078Z,11.30
2022-12-25T20:30:39.747Z,11.30
2022-12-25T20:33:06.943Z,11.30
2022-12-25T20:35:33.948Z,11.30
2022-12-25T20:38:01.017Z,11.30
2022-12-25T20:40:28.099Z,11.40
2022-12-25T20:42:55.146Z,11.30
2022-12-25T20:45:22.341Z,11.40
2022-12-25T20:47:49.385Z,11.40
2022-12-25T20:50:16.469Z,11.40
2022-12-25T20:52:43.571Z,11.40
2022-12-25T20:55:10.537Z,11.40
2022-12-25T20:57:37.834Z,11.40
2022-12-25T21:00:05.278Z,11.40
2022-12-25T21:02:36.566Z,11.40
2022-12-25T21:05:05.291Z,11.40
2022-12-25T21:07:32.391Z,11.40
2022-12-25T21:09:59.781Z,11.40
2022-12-25T21:12:26.805Z,11.40
2022-12-25T21:14:53.793Z,11.40
2022-12-25T21:17:20.894Z,11.40
2022-12-25T21:19:48.005Z,11.40
2022-12-25T21:22:15.221Z,11.40
2022-12-25T21:24:42.340Z,11.40
2022-12-25T21:27:09.437Z,11.40
2022-12-25T21:29:36.608Z,11.40
2022-12-25T21:32:22.259Z,11.30
2022-12-25T21:34:49.272Z,11.30
2022-12-25T21:37:16.309Z,11.30
2022-12-25T21:39:43.306Z,11.30
2022-12-25T21:42:10.915Z,11.30
2022-12-25T21:44:38.006Z,11.30
2022-12-25T21:47:05.017Z,11.20
2022-12-25T21:49:50.564Z,11.20
2022-12-25T21:52:17.743Z,11.20
2022-12-25T21:54:44.845Z,11.20
2022-12-25T21:57:11.837Z,11.20
2022-12-25T21:59:38.966Z,11.20
2022-12-25T22:02:11.471Z,11.20
2022-12-25T22:04:39.158Z,11.10
2022-12-25T22:07:18.035Z,11.10
2022-12-25T22:09:51.368Z,11.10
2022-12-25T22:12:41.435Z,11.00
2022-12-25T22:15:10.585Z,11.00
2022-12-25T22:17:59.075Z,11.00
2022-12-25T22:20:30.153Z,10.90
2022-12-25T22:22:58.294Z,10.90
2022-12-25T22:25:25.439Z,10.90
2022-12-25T22:27:52.603Z,10.90
2022-12-25T22:30:25.745Z,10.90
2022-12-25T22:32:53.016Z,10.80
2022-12-25T22:35:21.023Z,10.80
2022-12-25T22:37:49.637Z,10.80
2022-12-25T22:40:18.261Z,10.80
2022-12-25T22:42:45.644Z,10.70
2022-12-25T22:45:13.098Z,10.70
2022-12-25T22:47:40.437Z,10.70
2022-12-25T22:50:08.369Z,10.60
2022-12-25T22:52:36.208Z,10.60
2022-12-25T22:55:05.130Z,10.60
2022-12-25T22:57:32.133Z,10.60
2022-12-25T22:59:59.331Z,10.50
2022-12-25T23:02:26.972Z,10.50
2022-12-25T23:04:54.106Z,10.50
2022-12-25T23:07:21.340Z,10.50
2022-12-25T23:09:48.340Z,10.40
2022-12-25T23:12:33.977Z,10.40
2022-12-25T23:15:01.074Z,10.40
2022-12-25T23:17:46.582Z,10.40
2022-12-25T23:20:33.451Z,10.40
2022-12-25T23:23:19.748Z,10.30
2022-12-25T23:26:05.327Z,10.30
2022-12-25T23:28:51.152Z,10.20
2022-12-25T23:31:20.760Z,10.20
2022-12-25T23:33:47.824Z,10.20
2022-12-25T23:36:14.818Z,10.20
2022-12-25T23:38:41.884Z,10.10
2022-12-25T23:41:08.986Z,10.10
2022-12-25T23:43:35.960Z,10.10
2022-12-25T23:46:03.301Z,10.10
2022-12-25T23:48:30.289Z,10.00
2022-12-25T23:51:02.166Z,10.00
2022-12-25T23:53:29.240Z,10.00
2022-12-25T23:55:57.638Z,10.00
2022-12-25T23:58:26.428Z,9.90
